Cachoeira Alta, Brazil
Current Conditions -  °F | °C
As of 9:00 AM on Wednesday 26 Nov 2014 (Local Time) from SBAU Reporting Station
Broken Clouds Broken Clouds  
Wind Chill: 72°   Ceiling: 500
Heat Index: 72°   Visibility: 6mi
Dew Point: 70°   Wind: 5mph
Humidity: 94%   Direction: 10°N
Pressure: 29.83"   Gusts: NA
Location:  18.76°S, 50.94°W
Report Text: SBAU 261100Z 01004KT 9999 SCT003 BKN005 BKN080 22/21 Q1010
Loading
Personal Weather Stations






























Interactive Weather Map New forecast layout! Learn more

10-Day Weather Forecast

Advertisements
Track Severe Weather on mobile